Kenora Airport
CYQK : now visible

Airfield :











YOU CAN JOIN US ON...

 
LOGIN :

Register | Disclaimer

   EN    FR    IT 

 









Legend :    VFR   Marginal VFR   IFR   Intensive IFR   Very Intensive IFR
Visi :
Ceiling :
>= 8 km
>= 3000ft
5 to 8 km
1000 to 3000 ft
1500m to 5 km
500 to 1000 ft
800 to 1500m
200 to 500 ft
< 800m
< 200 ft
Symbols :   Thunderstorms  Fog  Heavy snow  Heavy precipitations  Wind > 20 kt






- Airport Elevation : 1332 ft
- IATA code : YQK


CYQK - Kenora

CURRENT METAR :
  • 280500Z 28006KT 20SM SKC 17/01 A2988 RMK SLP122 DENSITY ALT 1900FT

EXPIRED METARs :
  • 280400Z 27005KT 20SM SKC 17/01 A2988 RMK SLP120 DENSITY ALT 2000FT
  • 280300Z 29006KT 20SM FEW090 SCT250 19/02 A2987 RMK AC1CI2 SLP117 DENSITY ALT 2200FT

TAF TAF CYQK
Valid from the 28 at 02:00 until the 28 at 14:00 UTC


280130Z 2802/2814 27010KT P6SM SCT070
BECMG 2802/2804 27008KT
BECMG 2812/2814 27012G22KT RMK NXT FCST BY 280800Z
CZWG FIR / North America



MET'MAP, your aeronautical weather chart ! - Copyright ORBIFLY December 2007 - Disclaimer

ORBIFLY MET'MAP TEAM :

Programming & Development : Alexandra Zaïnal
Concept & original design : Baudouin d'Aumeries
Assistance for programming : Marc-Olivier Méhu
Technical & hardware support : Manuel Goepfert

Contact : metmap@orbifly.com




SOURCES & CREDITS :

   NOAA       Earth
Advisory